sensor_id;sensor_type;location;lat;lon;timestamp;temperature;humidity
66608;DHT22;53462;39.616;8.824;2022-11-15T00:01:45;15.00;98.40
66608;DHT22;53462;39.616;8.824;2022-11-15T00:04:29;15.10;98.60
66608;DHT22;53462;39.616;8.824;2022-11-15T00:07:13;15.00;98.60
66608;DHT22;53462;39.616;8.824;2022-11-15T00:09:57;15.00;98.60
66608;DHT22;53462;39.616;8.824;2022-11-15T00:12:41;15.00;98.60
66608;DHT22;53462;39.616;8.824;2022-11-15T00:15:26;15.00;98.80
66608;DHT22;53462;39.616;8.824;2022-11-15T00:18:13;15.00;99.00
66608;DHT22;53462;39.616;8.824;2022-11-15T00:21:03;14.90;98.90
66608;DHT22;53462;39.616;8.824;2022-11-15T00:23:47;14.90;99.20
66608;DHT22;53462;39.616;8.824;2022-11-15T00:26:31;14.90;99.30
66608;DHT22;53462;39.616;8.824;2022-11-15T00:29:15;14.90;99.40
66608;DHT22;53462;39.616;8.824;2022-11-15T00:32:00;15.00;99.40
66608;DHT22;53462;39.616;8.824;2022-11-15T00:34:44;14.90;99.50
66608;DHT22;53462;39.616;8.824;2022-11-15T00:37:28;15.00;99.60
66608;DHT22;53462;39.616;8.824;2022-11-15T00:40:12;15.00;99.40
66608;DHT22;53462;39.616;8.824;2022-11-15T00:42:57;15.00;99.50
66608;DHT22;53462;39.616;8.824;2022-11-15T00:45:41;15.00;99.60
66608;DHT22;53462;39.616;8.824;2022-11-15T00:48:26;14.90;99.60
66608;DHT22;53462;39.616;8.824;2022-11-15T00:51:10;14.90;99.90
66608;DHT22;53462;39.616;8.824;2022-11-15T00:53:54;14.90;99.90
66608;DHT22;53462;39.616;8.824;2022-11-15T00:56:38;15.00;99.90
66608;DHT22;53462;39.616;8.824;2022-11-15T00:59:23;15.00;99.90
66608;DHT22;53462;39.616;8.824;2022-11-15T01:02:07;15.00;99.80
66608;DHT22;53462;39.616;8.824;2022-11-15T01:04:51;15.10;99.70
66608;DHT22;53462;39.616;8.824;2022-11-15T01:07:35;15.10;99.40
66608;DHT22;53462;39.616;8.824;2022-11-15T01:10:20;15.10;99.10
66608;DHT22;53462;39.616;8.824;2022-11-15T01:13:05;15.10;98.80
66608;DHT22;53462;39.616;8.824;2022-11-15T01:15:49;15.20;98.60
66608;DHT22;53462;39.616;8.824;2022-11-15T01:18:33;15.20;98.40
66608;DHT22;53462;39.616;8.824;2022-11-15T01:21:18;15.30;97.80
66608;DHT22;53462;39.616;8.824;2022-11-15T01:24:03;15.30;97.30
66608;DHT22;53462;39.616;8.824;2022-11-15T01:26:47;15.30;97.10
66608;DHT22;53462;39.616;8.824;2022-11-15T01:29:31;15.40;97.00
66608;DHT22;53462;39.616;8.824;2022-11-15T01:32:15;15.30;96.90
66608;DHT22;53462;39.616;8.824;2022-11-15T01:35:00;15.30;96.90
66608;DHT22;53462;39.616;8.824;2022-11-15T01:37:44;15.30;96.80
66608;DHT22;53462;39.616;8.824;2022-11-15T01:40:28;15.30;96.40
66608;DHT22;53462;39.616;8.824;2022-11-15T01:43:29;15.30;96.00
66608;DHT22;53462;39.616;8.824;2022-11-15T01:49:05;15.30;95.10
66608;DHT22;53462;39.616;8.824;2022-11-15T01:51:54;15.30;94.60
66608;DHT22;53462;39.616;8.824;2022-11-15T01:54:39;15.30;94.50
66608;DHT22;53462;39.616;8.824;2022-11-15T01:57:24;15.30;94.40
66608;DHT22;53462;39.616;8.824;2022-11-15T02:00:08;15.30;94.20
66608;DHT22;53462;39.616;8.824;2022-11-15T02:02:53;15.30;94.00
66608;DHT22;53462;39.616;8.824;2022-11-15T02:05:37;15.30;93.90
66608;DHT22;53462;39.616;8.824;2022-11-15T02:08:21;15.40;93.80
66608;DHT22;53462;39.616;8.824;2022-11-15T02:11:08;15.40;93.90
66608;DHT22;53462;39.616;8.824;2022-11-15T02:13:53;15.40;93.70
66608;DHT22;53462;39.616;8.824;2022-11-15T02:25:47;15.30;93.10
66608;DHT22;53462;39.616;8.824;2022-11-15T02:28:41;15.30;93.20
66608;DHT22;53462;39.616;8.824;2022-11-15T02:31:41;15.30;93.20
66608;DHT22;53462;39.616;8.824;2022-11-15T02:37:16;15.30;93.50
66608;DHT22;53462;39.616;8.824;2022-11-15T02:40:11;15.30;93.50
66608;DHT22;53462;39.616;8.824;2022-11-15T02:42:57;15.30;93.70
66608;DHT22;53462;39.616;8.824;2022-11-15T02:46:05;15.30;93.80
66608;DHT22;53462;39.616;8.824;2022-11-15T02:48:51;15.30;93.90
66608;DHT22;53462;39.616;8.824;2022-11-15T02:51:35;15.20;94.10
66608;DHT22;53462;39.616;8.824;2022-11-15T02:54:26;15.20;94.20
66608;DHT22;53462;39.616;8.824;2022-11-15T02:57:14;15.20;94.10
66608;DHT22;53462;39.616;8.824;2022-11-15T03:00:08;15.20;94.10
66608;DHT22;53462;39.616;8.824;2022-11-15T03:11:21;15.10;94.70
66608;DHT22;53462;39.616;8.824;2022-11-15T03:14:19;15.10;94.80
66608;DHT22;53462;39.616;8.824;2022-11-15T03:19:50;15.10;94.60
66608;DHT22;53462;39.616;8.824;2022-11-15T03:22:38;15.10;94.70
66608;DHT22;53462;39.616;8.824;2022-11-15T03:25:24;15.10;94.70
66608;DHT22;53462;39.616;8.824;2022-11-15T03:28:10;15.10;94.50
66608;DHT22;53462;39.616;8.824;2022-11-15T03:30:56;15.10;94.50
66608;DHT22;53462;39.616;8.824;2022-11-15T03:33:40;15.10;94.60
66608;DHT22;53462;39.616;8.824;2022-11-15T03:36:25;15.10;94.60
66608;DHT22;53462;39.616;8.824;2022-11-15T03:39:11;15.10;94.40
66608;DHT22;53462;39.616;8.824;2022-11-15T03:48:17;15.20;94.50
66608;DHT22;53462;39.616;8.824;2022-11-15T03:51:03;15.10;94.50
66608;DHT22;53462;39.616;8.824;2022-11-15T03:53:47;15.10;94.70
66608;DHT22;53462;39.616;8.824;2022-11-15T03:56:31;15.10;94.80
66608;DHT22;53462;39.616;8.824;2022-11-15T03:59:16;15.10;95.00
66608;DHT22;53462;39.616;8.824;2022-11-15T04:02:00;15.10;95.10
66608;DHT22;53462;39.616;8.824;2022-11-15T04:04:45;15.10;94.90
66608;DHT22;53462;39.616;8.824;2022-11-15T04:07:28;15.10;95.10
66608;DHT22;53462;39.616;8.824;2022-11-15T04:10:13;15.10;94.80
66608;DHT22;53462;39.616;8.824;2022-11-15T04:12:57;15.10;94.80
66608;DHT22;53462;39.616;8.824;2022-11-15T04:15:41;15.00;94.90
66608;DHT22;53462;39.616;8.824;2022-11-15T04:18:25;15.00;95.10
66608;DHT22;53462;39.616;8.824;2022-11-15T04:21:09;15.00;95.10
66608;DHT22;53462;39.616;8.824;2022-11-15T04:24:13;15.00;95.10
66608;DHT22;53462;39.616;8.824;2022-11-15T04:26:57;15.00;95.50
66608;DHT22;53462;39.616;8.824;2022-11-15T04:29:41;15.10;95.80
66608;DHT22;53462;39.616;8.824;2022-11-15T04:32:25;15.10;96.00
66608;DHT22;53462;39.616;8.824;2022-11-15T04:35:10;15.10;96.00
66608;DHT22;53462;39.616;8.824;2022-11-15T04:37:54;15.10;95.80
66608;DHT22;53462;39.616;8.824;2022-11-15T04:40:39;15.10;96.00
66608;DHT22;53462;39.616;8.824;2022-11-15T04:43:23;15.10;95.90
66608;DHT22;53462;39.616;8.824;2022-11-15T04:46:07;15.10;95.40
66608;DHT22;53462;39.616;8.824;2022-11-15T04:48:52;15.10;95.00
66608;DHT22;53462;39.616;8.824;2022-11-15T04:51:37;15.10;94.60
66608;DHT22;53462;39.616;8.824;2022-11-15T04:54:21;15.10;94.40
66608;DHT22;53462;39.616;8.824;2022-11-15T04:57:05;15.00;94.50
66608;DHT22;53462;39.616;8.824;2022-11-15T04:59:49;15.10;94.40
66608;DHT22;53462;39.616;8.824;2022-11-15T05:02:34;15.10;94.20
66608;DHT22;53462;39.616;8.824;2022-11-15T05:05:37;15.10;94.20
66608;DHT22;53462;39.616;8.824;2022-11-15T05:08:22;15.10;94.60
66608;DHT22;53462;39.616;8.824;2022-11-15T05:11:06;15.10;94.90
66608;DHT22;53462;39.616;8.824;2022-11-15T05:13:50;15.10;94.90
66608;DHT22;53462;39.616;8.824;2022-11-15T05:16:35;15.10;95.20
66608;DHT22;53462;39.616;8.824;2022-11-15T05:19:19;15.10;95.30
66608;DHT22;53462;39.616;8.824;2022-11-15T05:22:04;15.20;95.20
66608;DHT22;53462;39.616;8.824;2022-11-15T05:24:48;15.20;95.10
66608;DHT22;53462;39.616;8.824;2022-11-15T05:27:32;15.20;95.10
66608;DHT22;53462;39.616;8.824;2022-11-15T05:30:17;15.20;94.80
66608;DHT22;53462;39.616;8.824;2022-11-15T05:33:01;15.20;94.90
66608;DHT22;53462;39.616;8.824;2022-11-15T05:35:46;15.20;95.30
66608;DHT22;53462;39.616;8.824;2022-11-15T05:38:32;15.30;95.20
66608;DHT22;53462;39.616;8.824;2022-11-15T05:41:17;15.20;95.20
66608;DHT22;53462;39.616;8.824;2022-11-15T05:44:02;15.30;95.00
66608;DHT22;53462;39.616;8.824;2022-11-15T05:46:47;15.30;95.20
66608;DHT22;53462;39.616;8.824;2022-11-15T05:49:33;15.30;95.30
66608;DHT22;53462;39.616;8.824;2022-11-15T05:52:20;15.20;95.60
66608;DHT22;53462;39.616;8.824;2022-11-15T05:55:06;15.20;95.70
66608;DHT22;53462;39.616;8.824;2022-11-15T05:57:51;15.20;95.90
66608;DHT22;53462;39.616;8.824;2022-11-15T06:00:35;15.20;96.10
66608;DHT22;53462;39.616;8.824;2022-11-15T06:03:19;15.20;96.30
66608;DHT22;53462;39.616;8.824;2022-11-15T06:06:04;15.20;96.50
66608;DHT22;53462;39.616;8.824;2022-11-15T06:08:48;15.10;96.50
66608;DHT22;53462;39.616;8.824;2022-11-15T06:11:32;15.20;96.40
66608;DHT22;53462;39.616;8.824;2022-11-15T06:14:16;15.20;96.20
66608;DHT22;53462;39.616;8.824;2022-11-15T06:17:00;15.20;96.20
66608;DHT22;53462;39.616;8.824;2022-11-15T06:19:45;15.30;96.20
66608;DHT22;53462;39.616;8.824;2022-11-15T06:22:30;15.30;96.30
66608;DHT22;53462;39.616;8.824;2022-11-15T06:25:14;15.30;96.30
66608;DHT22;53462;39.616;8.824;2022-11-15T06:27:58;15.30;96.30
66608;DHT22;53462;39.616;8.824;2022-11-15T06:30:43;15.30;96.40
66608;DHT22;53462;39.616;8.824;2022-11-15T06:33:27;15.40;96.60
66608;DHT22;53462;39.616;8.824;2022-11-15T06:36:12;15.40;96.70
66608;DHT22;53462;39.616;8.824;2022-11-15T06:39:00;15.40;96.60
66608;DHT22;53462;39.616;8.824;2022-11-15T06:41:44;15.40;96.70
66608;DHT22;53462;39.616;8.824;2022-11-15T06:44:29;15.50;96.40
66608;DHT22;53462;39.616;8.824;2022-11-15T06:47:13;15.60;96.20
66608;DHT22;53462;39.616;8.824;2022-11-15T06:49:57;15.70;95.60
66608;DHT22;53462;39.616;8.824;2022-11-15T06:52:42;15.70;95.20
66608;DHT22;53462;39.616;8.824;2022-11-15T06:55:26;15.70;95.10
66608;DHT22;53462;39.616;8.824;2022-11-15T06:58:10;15.80;95.20
66608;DHT22;53462;39.616;8.824;2022-11-15T07:00:58;15.80;95.20
66608;DHT22;53462;39.616;8.824;2022-11-15T07:03:43;15.80;95.50
66608;DHT22;53462;39.616;8.824;2022-11-15T07:06:27;15.90;95.30
66608;DHT22;53462;39.616;8.824;2022-11-15T07:09:11;16.10;95.10
66608;DHT22;53462;39.616;8.824;2022-11-15T07:11:56;16.30;94.40
66608;DHT22;53462;39.616;8.824;2022-11-15T07:14:40;16.50;93.70
66608;DHT22;53462;39.616;8.824;2022-11-15T07:17:24;17.40;92.70
66608;DHT22;53462;39.616;8.824;2022-11-15T07:20:08;18.40;85.00
66608;DHT22;53462;39.616;8.824;2022-11-15T07:23:00;18.20;84.90
66608;DHT22;53462;39.616;8.824;2022-11-15T07:25:45;18.30;85.30
66608;DHT22;53462;39.616;8.824;2022-11-15T07:28:29;18.60;83.10
66608;DHT22;53462;39.616;8.824;2022-11-15T07:31:14;18.90;82.50
66608;DHT22;53462;39.616;8.824;2022-11-15T07:33:58;19.20;81.30
66608;DHT22;53462;39.616;8.824;2022-11-15T07:36:42;19.30;80.50
66608;DHT22;53462;39.616;8.824;2022-11-15T07:39:26;19.60;79.20
66608;DHT22;53462;39.616;8.824;2022-11-15T07:42:10;20.00;77.90
66608;DHT22;53462;39.616;8.824;2022-11-15T07:45:15;21.00;74.30
66608;DHT22;53462;39.616;8.824;2022-11-15T07:47:59;20.70;75.90
66608;DHT22;53462;39.616;8.824;2022-11-15T07:50:43;22.10;72.20
66608;DHT22;53462;39.616;8.824;2022-11-15T07:53:28;23.50;65.90
66608;DHT22;53462;39.616;8.824;2022-11-15T07:56:12;24.20;63.60
66608;DHT22;53462;39.616;8.824;2022-11-15T07:58:56;23.80;63.70
66608;DHT22;53462;39.616;8.824;2022-11-15T08:01:41;24.40;63.40
66608;DHT22;53462;39.616;8.824;2022-11-15T08:04:25;22.60;66.50
66608;DHT22;53462;39.616;8.824;2022-11-15T08:07:09;22.20;68.80
66608;DHT22;53462;39.616;8.824;2022-11-15T08:09:54;21.80;70.90
66608;DHT22;53462;39.616;8.824;2022-11-15T08:12:39;22.70;67.90
66608;DHT22;53462;39.616;8.824;2022-11-15T08:15:23;22.00;70.20
66608;DHT22;53462;39.616;8.824;2022-11-15T08:18:12;21.30;73.80
66608;DHT22;53462;39.616;8.824;2022-11-15T08:21:00;23.40;67.80
66608;DHT22;53462;39.616;8.824;2022-11-15T08:23:45;23.10;67.70
66608;DHT22;53462;39.616;8.824;2022-11-15T08:26:29;23.00;69.30
66608;DHT22;53462;39.616;8.824;2022-11-15T08:29:14;23.30;67.10
66608;DHT22;53462;39.616;8.824;2022-11-15T08:31:58;23.50;65.80
66608;DHT22;53462;39.616;8.824;2022-11-15T08:34:42;24.50;64.70
66608;DHT22;53462;39.616;8.824;2022-11-15T08:37:26;24.80;64.20
66608;DHT22;53462;39.616;8.824;2022-11-15T08:40:11;25.70;61.30
66608;DHT22;53462;39.616;8.824;2022-11-15T08:42:55;25.80;60.50
66608;DHT22;53462;39.616;8.824;2022-11-15T08:45:39;25.70;60.80
66608;DHT22;53462;39.616;8.824;2022-11-15T08:48:24;26.70;59.10
66608;DHT22;53462;39.616;8.824;2022-11-15T08:51:08;25.10;61.60
66608;DHT22;53462;39.616;8.824;2022-11-15T08:53:52;24.50;64.70
66608;DHT22;53462;39.616;8.824;2022-11-15T08:56:36;22.50;70.00
66608;DHT22;53462;39.616;8.824;2022-11-15T08:59:21;21.80;73.90
66608;DHT22;53462;39.616;8.824;2022-11-15T09:02:05;22.60;71.50
66608;DHT22;53462;39.616;8.824;2022-11-15T09:04:50;23.10;71.20
66608;DHT22;53462;39.616;8.824;2022-11-15T09:07:34;22.20;73.20
66608;DHT22;53462;39.616;8.824;2022-11-15T09:10:18;21.20;76.70
66608;DHT22;53462;39.616;8.824;2022-11-15T09:13:02;20.90;78.80
66608;DHT22;53462;39.616;8.824;2022-11-15T09:15:46;21.80;76.80
66608;DHT22;53462;39.616;8.824;2022-11-15T09:18:31;23.70;69.80
66608;DHT22;53462;39.616;8.824;2022-11-15T09:21:15;25.10;65.60
66608;DHT22;53462;39.616;8.824;2022-11-15T09:23:59;25.40;64.40
66608;DHT22;53462;39.616;8.824;2022-11-15T09:26:44;26.10;60.90
66608;DHT22;53462;39.616;8.824;2022-11-15T09:29:28;25.90;61.20
66608;DHT22;53462;39.616;8.824;2022-11-15T09:32:13;26.50;60.60
66608;DHT22;53462;39.616;8.824;2022-11-15T09:34:57;27.00;58.00
66608;DHT22;53462;39.616;8.824;2022-11-15T09:37:41;27.50;57.50
66608;DHT22;53462;39.616;8.824;2022-11-15T09:40:26;27.30;58.00
66608;DHT22;53462;39.616;8.824;2022-11-15T09:49:43;26.50;59.80
66608;DHT22;53462;39.616;8.824;2022-11-15T09:52:22;26.30;59.90
66608;DHT22;53462;39.616;8.824;2022-11-15T09:54:49;25.70;61.50
66608;DHT22;53462;39.616;8.824;2022-11-15T09:57:20;24.60;65.10
66608;DHT22;53462;39.616;8.824;2022-11-15T10:05:10;23.60;68.60
66608;DHT22;53462;39.616;8.824;2022-11-15T10:10:14;26.60;59.90
66608;DHT22;53462;39.616;8.824;2022-11-15T10:12:46;27.40;57.70
66608;DHT22;53462;39.616;8.824;2022-11-15T10:15:14;27.40;57.20
66608;DHT22;53462;39.616;8.824;2022-11-15T10:17:45;27.30;57.20
66608;DHT22;53462;39.616;8.824;2022-11-15T10:20:23;27.30;58.20
66608;DHT22;53462;39.616;8.824;2022-11-15T10:22:51;26.90;58.50
66608;DHT22;53462;39.616;8.824;2022-11-15T10:25:19;27.90;56.40
66608;DHT22;53462;39.616;8.824;2022-11-15T10:27:59;28.00;56.70
66608;DHT22;53462;39.616;8.824;2022-11-15T10:30:32;27.20;56.80
66608;DHT22;53462;39.616;8.824;2022-11-15T10:32:58;26.10;58.20
66608;DHT22;53462;39.616;8.824;2022-11-15T10:35:27;24.10;64.30
66608;DHT22;53462;39.616;8.824;2022-11-15T10:38:07;23.50;66.90
66608;DHT22;53462;39.616;8.824;2022-11-15T10:40:33;23.50;66.40
66608;DHT22;53462;39.616;8.824;2022-11-15T10:43:17;23.40;66.70
66608;DHT22;53462;39.616;8.824;2022-11-15T10:45:44;22.90;67.80
66608;DHT22;53462;39.616;8.824;2022-11-15T10:50:43;23.30;69.50
66608;DHT22;53462;39.616;8.824;2022-11-15T10:55:55;23.30;67.40
66608;DHT22;53462;39.616;8.824;2022-11-15T10:58:32;22.90;67.80
66608;DHT22;53462;39.616;8.824;2022-11-15T11:01:09;23.00;68.30
66608;DHT22;53462;39.616;8.824;2022-11-15T11:03:36;23.20;68.20
66608;DHT22;53462;39.616;8.824;2022-11-15T11:06:10;22.90;70.20
66608;DHT22;53462;39.616;8.824;2022-11-15T11:08:37;22.90;67.30
66608;DHT22;53462;39.616;8.824;2022-11-15T11:11:03;22.90;67.40
66608;DHT22;53462;39.616;8.824;2022-11-15T11:13:30;23.40;67.80
66608;DHT22;53462;39.616;8.824;2022-11-15T11:18:27;23.40;64.20
66608;DHT22;53462;39.616;8.824;2022-11-15T11:20:58;23.10;66.30
66608;DHT22;53462;39.616;8.824;2022-11-15T11:23:33;23.40;66.30
66608;DHT22;53462;39.616;8.824;2022-11-15T11:26:08;23.80;64.60
66608;DHT22;53462;39.616;8.824;2022-11-15T11:31:35;23.50;65.80
66608;DHT22;53462;39.616;8.824;2022-11-15T11:36:53;23.50;63.90
66608;DHT22;53462;39.616;8.824;2022-11-15T11:45:24;23.90;64.50
66608;DHT22;53462;39.616;8.824;2022-11-15T11:47:51;23.60;65.60
66608;DHT22;53462;39.616;8.824;2022-11-15T11:50:18;23.50;64.50
66608;DHT22;53462;39.616;8.824;2022-11-15T11:53:09;23.70;63.60
66608;DHT22;53462;39.616;8.824;2022-11-15T11:55:40;23.60;64.30
66608;DHT22;53462;39.616;8.824;2022-11-15T12:00:33;23.40;64.20
66608;DHT22;53462;39.616;8.824;2022-11-15T12:03:09;23.40;65.10
66608;DHT22;53462;39.616;8.824;2022-11-15T12:05:40;23.60;64.60
66608;DHT22;53462;39.616;8.824;2022-11-15T12:10:58;24.20;61.90
66608;DHT22;53462;39.616;8.824;2022-11-15T12:13:26;23.80;62.80
66608;DHT22;53462;39.616;8.824;2022-11-15T12:15:59;23.90;62.50
66608;DHT22;53462;39.616;8.824;2022-11-15T12:18:27;23.40;63.30
66608;DHT22;53462;39.616;8.824;2022-11-15T12:20:55;23.50;63.50
66608;DHT22;53462;39.616;8.824;2022-11-15T12:23:32;23.90;64.10
66608;DHT22;53462;39.616;8.824;2022-11-15T12:28:28;24.60;60.90
66608;DHT22;53462;39.616;8.824;2022-11-15T12:31:03;23.90;60.30
66608;DHT22;53462;39.616;8.824;2022-11-15T12:33:35;23.90;61.60
66608;DHT22;53462;39.616;8.824;2022-11-15T12:36:05;24.00;61.70
66608;DHT22;53462;39.616;8.824;2022-11-15T12:41:16;23.70;62.20
66608;DHT22;53462;39.616;8.824;2022-11-15T12:43:43;23.20;64.30
66608;DHT22;53462;39.616;8.824;2022-11-15T12:46:21;23.30;65.50
66608;DHT22;53462;39.616;8.824;2022-11-15T12:48:51;23.00;65.70
66608;DHT22;53462;39.616;8.824;2022-11-15T12:51:19;22.90;66.60
66608;DHT22;53462;39.616;8.824;2022-11-15T12:53:46;23.00;66.60
66608;DHT22;53462;39.616;8.824;2022-11-15T12:58:42;22.90;66.10
66608;DHT22;53462;39.616;8.824;2022-11-15T13:06:53;23.90;64.40
66608;DHT22;53462;39.616;8.824;2022-11-15T13:12:01;24.00;61.60
66608;DHT22;53462;39.616;8.824;2022-11-15T13:17:24;24.40;58.40
66608;DHT22;53462;39.616;8.824;2022-11-15T13:20:07;25.10;59.60
66608;DHT22;53462;39.616;8.824;2022-11-15T13:22:47;25.40;58.30
66608;DHT22;53462;39.616;8.824;2022-11-15T13:25:18;25.40;56.90
66608;DHT22;53462;39.616;8.824;2022-11-15T13:27:46;25.70;56.90
66608;DHT22;53462;39.616;8.824;2022-11-15T13:30:22;25.40;56.20
66608;DHT22;53462;39.616;8.824;2022-11-15T13:32:48;25.70;56.20
66608;DHT22;53462;39.616;8.824;2022-11-15T13:35:18;25.70;55.90
66608;DHT22;53462;39.616;8.824;2022-11-15T13:37:45;25.30;55.70
66608;DHT22;53462;39.616;8.824;2022-11-15T13:42:42;24.60;56.10
66608;DHT22;53462;39.616;8.824;2022-11-15T13:45:11;24.70;59.20
66608;DHT22;53462;39.616;8.824;2022-11-15T13:47:38;24.60;59.40
66608;DHT22;53462;39.616;8.824;2022-11-15T13:50:04;24.80;59.60
66608;DHT22;53462;39.616;8.824;2022-11-15T13:52:31;24.20;60.00
66608;DHT22;53462;39.616;8.824;2022-11-15T13:55:03;24.10;61.60
66608;DHT22;53462;39.616;8.824;2022-11-15T13:57:44;23.80;60.90
66608;DHT22;53462;39.616;8.824;2022-11-15T14:00:33;23.90;59.80
66608;DHT22;53462;39.616;8.824;2022-11-15T14:02:56;23.90;60.00
66608;DHT22;53462;39.616;8.824;2022-11-15T14:05:25;23.90;60.10
66608;DHT22;53462;39.616;8.824;2022-11-15T14:10:30;23.90;60.90
66608;DHT22;53462;39.616;8.824;2022-11-15T14:12:57;23.70;61.10
66608;DHT22;53462;39.616;8.824;2022-11-15T14:15:25;23.50;62.50
66608;DHT22;53462;39.616;8.824;2022-11-15T14:17:51;23.50;63.70
66608;DHT22;53462;39.616;8.824;2022-11-15T14:20:26;23.30;64.40
66608;DHT22;53462;39.616;8.824;2022-11-15T14:22:58;23.20;64.50
66608;DHT22;53462;39.616;8.824;2022-11-15T14:25:25;23.40;64.40
66608;DHT22;53462;39.616;8.824;2022-11-15T14:30:35;23.10;63.00
66608;DHT22;53462;39.616;8.824;2022-11-15T14:33:01;23.10;64.10
66608;DHT22;53462;39.616;8.824;2022-11-15T14:35:28;23.10;64.60
66608;DHT22;53462;39.616;8.824;2022-11-15T14:37:54;23.00;64.80
66608;DHT22;53462;39.616;8.824;2022-11-15T14:40:20;22.80;65.40
66608;DHT22;53462;39.616;8.824;2022-11-15T14:42:47;22.80;65.60
66608;DHT22;53462;39.616;8.824;2022-11-15T14:45:18;22.90;65.70
66608;DHT22;53462;39.616;8.824;2022-11-15T14:47:44;22.80;66.20
66608;DHT22;53462;39.616;8.824;2022-11-15T14:50:13;22.70;65.30
66608;DHT22;53462;39.616;8.824;2022-11-15T14:52:39;22.70;65.30
66608;DHT22;53462;39.616;8.824;2022-11-15T14:55:11;22.50;65.80
66608;DHT22;53462;39.616;8.824;2022-11-15T14:57:39;22.50;66.30
66608;DHT22;53462;39.616;8.824;2022-11-15T15:00:05;22.40;66.70
66608;DHT22;53462;39.616;8.824;2022-11-15T15:02:41;22.30;67.00
66608;DHT22;53462;39.616;8.824;2022-11-15T15:05:12;22.10;67.60
66608;DHT22;53462;39.616;8.824;2022-11-15T15:07:39;21.90;67.60
66608;DHT22;53462;39.616;8.824;2022-11-15T15:10:04;21.90;68.70
66608;DHT22;53462;39.616;8.824;2022-11-15T15:12:30;21.30;69.10
66608;DHT22;53462;39.616;8.824;2022-11-15T15:14:56;21.20;71.00
66608;DHT22;53462;39.616;8.824;2022-11-15T15:17:22;21.20;70.70
66608;DHT22;53462;39.616;8.824;2022-11-15T15:19:48;21.00;71.20
66608;DHT22;53462;39.616;8.824;2022-11-15T15:22:15;20.90;72.00
66608;DHT22;53462;39.616;8.824;2022-11-15T15:24:42;20.90;71.70
66608;DHT22;53462;39.616;8.824;2022-11-15T15:27:08;20.90;71.70
66608;DHT22;53462;39.616;8.824;2022-11-15T15:29:34;20.80;71.70
66608;DHT22;53462;39.616;8.824;2022-11-15T15:32:00;20.80;72.30
66608;DHT22;53462;39.616;8.824;2022-11-15T15:34:25;20.70;72.20
66608;DHT22;53462;39.616;8.824;2022-11-15T15:37:36;20.50;73.00
66608;DHT22;53462;39.616;8.824;2022-11-15T15:39:37;20.50;74.60
66608;DHT22;53462;39.616;8.824;2022-11-15T15:42:03;20.50;74.00
66608;DHT22;53462;39.616;8.824;2022-11-15T15:44:29;20.60;74.80
66608;DHT22;53462;39.616;8.824;2022-11-15T15:46:55;20.50;75.30
66608;DHT22;53462;39.616;8.824;2022-11-15T15:49:23;20.30;75.90
66608;DHT22;53462;39.616;8.824;2022-11-15T15:51:49;20.30;76.10
66608;DHT22;53462;39.616;8.824;2022-11-15T15:54:14;20.30;76.00
66608;DHT22;53462;39.616;8.824;2022-11-15T15:56:40;20.20;76.40
66608;DHT22;53462;39.616;8.824;2022-11-15T15:59:06;20.10;76.90
66608;DHT22;53462;39.616;8.824;2022-11-15T16:01:32;20.10;77.40
66608;DHT22;53462;39.616;8.824;2022-11-15T16:03:58;19.90;77.70
66608;DHT22;53462;39.616;8.824;2022-11-15T16:08:58;19.70;78.20
66608;DHT22;53462;39.616;8.824;2022-11-15T16:11:24;19.70;78.30
66608;DHT22;53462;39.616;8.824;2022-11-15T16:13:50;19.70;78.30
66608;DHT22;53462;39.616;8.824;2022-11-15T16:16:21;19.60;78.50
66608;DHT22;53462;39.616;8.824;2022-11-15T16:18:47;19.50;79.00
66608;DHT22;53462;39.616;8.824;2022-11-15T16:21:13;19.40;79.30
66608;DHT22;53462;39.616;8.824;2022-11-15T16:23:39;19.40;79.50
66608;DHT22;53462;39.616;8.824;2022-11-15T16:26:21;19.30;79.60
66608;DHT22;53462;39.616;8.824;2022-11-15T16:28:47;19.30;79.90
66608;DHT22;53462;39.616;8.824;2022-11-15T16:31:13;19.30;80.00
66608;DHT22;53462;39.616;8.824;2022-11-15T16:33:39;19.30;79.90
66608;DHT22;53462;39.616;8.824;2022-11-15T16:36:05;19.20;80.10
66608;DHT22;53462;39.616;8.824;2022-11-15T16:38:32;19.00;80.40
66608;DHT22;53462;39.616;8.824;2022-11-15T16:40:58;18.90;80.70
66608;DHT22;53462;39.616;8.824;2022-11-15T16:43:23;19.00;80.30
66608;DHT22;53462;39.616;8.824;2022-11-15T16:45:49;19.20;79.70
66608;DHT22;53462;39.616;8.824;2022-11-15T16:48:20;19.20;79.10
66608;DHT22;53462;39.616;8.824;2022-11-15T16:50:46;19.10;79.20
66608;DHT22;53462;39.616;8.824;2022-11-15T16:53:12;19.20;79.00
66608;DHT22;53462;39.616;8.824;2022-11-15T16:55:38;19.10;79.50
66608;DHT22;53462;39.616;8.824;2022-11-15T16:58:04;19.10;79.50
66608;DHT22;53462;39.616;8.824;2022-11-15T17:00:30;19.00;79.80
66608;DHT22;53462;39.616;8.824;2022-11-15T17:02:56;19.00;79.50
66608;DHT22;53462;39.616;8.824;2022-11-15T17:05:22;18.80;80.30
66608;DHT22;53462;39.616;8.824;2022-11-15T17:07:49;18.70;80.90
66608;DHT22;53462;39.616;8.824;2022-11-15T17:10:16;18.80;80.90
66608;DHT22;53462;39.616;8.824;2022-11-15T17:12:43;18.80;80.80
66608;DHT22;53462;39.616;8.824;2022-11-15T17:15:10;18.90;80.40
66608;DHT22;53462;39.616;8.824;2022-11-15T17:17:36;18.90;79.90
66608;DHT22;53462;39.616;8.824;2022-11-15T17:20:02;18.80;80.20
66608;DHT22;53462;39.616;8.824;2022-11-15T17:22:29;18.70;80.70
66608;DHT22;53462;39.616;8.824;2022-11-15T17:24:55;18.70;80.70
66608;DHT22;53462;39.616;8.824;2022-11-15T17:27:21;18.60;80.90
66608;DHT22;53462;39.616;8.824;2022-11-15T17:29:48;18.60;81.20
66608;DHT22;53462;39.616;8.824;2022-11-15T17:32:13;18.40;81.70
66608;DHT22;53462;39.616;8.824;2022-11-15T17:34:39;18.50;81.60
66608;DHT22;53462;39.616;8.824;2022-11-15T17:37:05;18.40;82.00
66608;DHT22;53462;39.616;8.824;2022-11-15T17:39:31;18.20;82.40
66608;DHT22;53462;39.616;8.824;2022-11-15T17:41:56;18.40;82.80
66608;DHT22;53462;39.616;8.824;2022-11-15T17:44:22;18.40;82.80
66608;DHT22;53462;39.616;8.824;2022-11-15T17:46:48;18.40;82.50
66608;DHT22;53462;39.616;8.824;2022-11-15T17:49:14;18.40;82.80
66608;DHT22;53462;39.616;8.824;2022-11-15T17:51:39;18.40;82.80
66608;DHT22;53462;39.616;8.824;2022-11-15T17:54:05;18.20;83.00
66608;DHT22;53462;39.616;8.824;2022-11-15T17:56:31;18.30;83.30
66608;DHT22;53462;39.616;8.824;2022-11-15T17:58:58;18.20;83.70
66608;DHT22;53462;39.616;8.824;2022-11-15T18:01:28;18.10;84.00
66608;DHT22;53462;39.616;8.824;2022-11-15T18:03:54;18.10;84.30
66608;DHT22;53462;39.616;8.824;2022-11-15T18:06:21;18.10;84.80
66608;DHT22;53462;39.616;8.824;2022-11-15T18:08:47;18.00;84.80
66608;DHT22;53462;39.616;8.824;2022-11-15T18:13:43;18.00;86.00
66608;DHT22;53462;39.616;8.824;2022-11-15T18:16:10;18.10;85.70
66608;DHT22;53462;39.616;8.824;2022-11-15T18:18:37;18.20;84.80